Time;durP1;ratioP1;P1;durP2;ratioP2;P2;SDS_P1;SDS_P2;PMS_P1;PMS_P2;Temp;Humidity;BMP_temperature;BMP_pressure;BME280_temperature;BME280_humidity;BME280_pressure;Samples;Min_cycle;Max_cycle;Signal;HPM_P1;HPM_P2
2023/03/25 00:00:15;;;;;;;5.32;2.10;;;;;;;19.59;49.46;97284.41;4485711;32;20081;-85
2023/03/25 00:02:48;;;;;;;5.82;2.53;;;;;;;20.56;47.07;97284.94;4486797;31;20089;-85
2023/03/25 00:05:17;;;;;;;5.50;2.25;;;;;;;20.89;46.21;97296.59;4486906;31;20084;-85
2023/03/25 00:07:47;;;;;;;4.40;1.98;;;;;;;20.48;46.73;97296.13;4486816;31;20099;-85
2023/03/25 00:10:14;;;;;;;5.35;2.03;;;;;;;20.69;46.52;97300.31;4486465;31;20340;-85
2023/03/25 00:12:44;;;;;;;3.75;1.60;;;;;;;20.27;47.04;97289.44;4487011;31;20461;-85
2023/03/25 00:15:11;;;;;;;3.35;1.50;;;;;;;20.39;46.14;97291.72;4486811;31;20430;-85
2023/03/25 00:22:00;;;;;;;3.97;1.80;;;;;;;20.71;45.78;97304.44;4486698;32;20098;-85
2023/03/25 00:24:27;;;;;;;3.80;1.70;;;;;;;20.58;46.34;97301.34;4486317;31;20149;-85
2023/03/25 00:26:54;;;;;;;3.37;1.70;;;;;;;19.51;48.71;97307.81;4486582;31;20097;-85
2023/03/25 00:29:21;;;;;;;9.27;4.03;;;;;;;19.28;50.07;97326.41;4486414;31;20085;-85
2023/03/25 00:31:48;;;;;;;11.25;5.15;;;;;;;19.12;51.11;97318.25;4486243;31;20414;-85
2023/03/25 00:34:15;;;;;;;9.38;4.25;;;;;;;19.65;50.45;97320.47;4486459;31;20092;-85
2023/03/25 00:36:42;;;;;;;8.73;3.08;;;;;;;19.82;49.72;97314.53;4486413;31;20141;-85
2023/03/25 00:42:43;;;;;;;2.70;1.40;;;;;;;17.67;56.96;97302.00;4488378;32;20457;-85
2023/03/25 00:45:11;;;;;;;3.83;1.52;;;;;;;18.01;56.41;97293.97;4488321;31;20084;-85
2023/03/25 00:47:38;;;;;;;3.00;1.30;;;;;;;17.80;57.38;97320.09;4488690;31;20451;-85
2023/03/25 00:50:05;;;;;;;2.05;1.30;;;;;;;17.67;57.71;97316.84;4488412;31;20076;-84
2023/03/25 00:52:32;;;;;;;4.12;1.50;;;;;;;17.39;58.88;97318.25;4488297;31;20083;-85
2023/03/25 00:55:00;;;;;;;4.28;1.42;;;;;;;16.96;61.63;97309.53;4488241;31;20092;-85
2023/03/25 00:57:27;;;;;;;3.00;1.23;;;;;;;16.99;62.24;97324.09;4488968;31;20106;-84
2023/03/25 00:59:54;;;;;;;2.60;1.10;;;;;;;16.63;63.91;97323.44;4488209;31;20137;-85
2023/03/25 01:02:22;;;;;;;2.55;1.20;;;;;;;16.10;66.97;97332.78;4487243;32;20098;-85
2023/03/25 01:04:49;;;;;;;2.87;1.37;;;;;;;15.88;69.19;97338.78;4488443;31;20129;-85
2023/03/25 01:07:18;;;;;;;4.62;1.50;;;;;;;16.76;66.58;97346.75;4488342;31;20096;-85
2023/03/25 01:09:46;;;;;;;5.43;1.70;;;;;;;16.46;68.22;97358.59;4487051;32;20082;-84
2023/03/25 01:12:14;;;;;;;4.25;1.70;;;;;;;16.15;71.27;97343.66;4488114;31;20080;-83
2023/03/25 01:14:42;;;;;;;3.08;1.58;;;;;;;16.28;71.87;97354.00;4488410;31;20095;-85
2023/03/25 01:17:09;;;;;;;4.45;1.80;;;;;;;15.55;75.60;97340.34;4488340;31;20100;-85
2023/03/25 01:23:16;;;;;;;4.37;1.42;;;;;;;15.87;75.48;97340.56;4488433;32;20137;-84
2023/03/25 01:25:43;;;;;;;2.87;1.45;;;;;;;14.97;82.77;97344.56;4488284;31;20108;-84
2023/03/25 01:31:58;;;;;;;2.60;1.30;;;;;;;14.49;88.73;97335.06;4488247;32;20139;-84
2023/03/25 01:34:25;;;;;;;3.40;1.33;;;;;;;14.29;90.57;97337.22;4487976;32;20137;-84
2023/03/25 01:36:54;;;;;;;1.83;0.95;;;;;;;13.81;95.57;97337.03;4488239;31;20446;-84
2023/03/25 01:42:50;;;;;;;2.62;0.80;;;;;;;13.36;94.43;97329.69;4488365;32;20130;-84
2023/03/25 01:45:29;;;;;;;2.62;0.98;;;;;;;13.67;92.30;97333.69;4488115;31;20092;-84
2023/03/25 01:52:02;;;;;;;;;;;;;;;14.04;89.91;97342.44;4488009;32;20153;-84
2023/03/25 01:54:29;;;;;;;3.12;0.93;;;;;;;13.66;92.62;97338.06;4487610;32;19976;-84
2023/03/25 01:56:56;;;;;;;2.08;0.88;;;;;;;13.30;96.42;97343.91;4488067;31;20084;-84
2023/03/25 01:59:26;;;;;;;1.83;0.80;;;;;;;13.92;91.38;97336.31;4488019;31;20114;-84
2023/03/25 02:01:54;;;;;;;1.73;0.70;;;;;;;14.05;90.86;97334.56;4486561;32;20413;-85
2023/03/25 02:04:57;;;;;;;2.03;0.80;;;;;;;13.93;91.43;97339.72;4488061;31;20141;-84
2023/03/25 02:11:53;;;;;;;2.03;0.73;;;;;;;14.22;89.08;97319.59;4488017;32;20157;-85
2023/03/25 02:14:24;;;;;;;1.17;0.70;;;;;;;14.60;86.40;97325.56;4487988;31;20096;-85
2023/03/25 02:17:09;;;;;;;2.60;0.90;;;;;;;15.33;81.71;97328.09;4486525;32;20099;-85
2023/03/25 02:20:08;;;;;;;2.22;0.82;;;;;;;15.56;80.05;97321.19;4487964;31;20125;-85
2023/03/25 02:22:48;;;;;;;1.15;0.70;;;;;;;16.06;77.46;97319.19;4487663;31;20111;-84
2023/03/25 02:25:34;;;;;;;0.68;0.50;;;;;;;16.12;77.46;97308.31;4486812;32;20104;-85
2023/03/25 02:28:04;;;;;;;3.33;1.00;;;;;;;16.32;75.71;97301.56;4487887;31;20080;-85
2023/03/25 02:31:09;;;;;;;2.25;1.12;;;;;;;16.29;76.25;97294.00;4487509;31;20121;-85
2023/03/25 02:33:56;;;;;;;3.65;1.05;;;;;;;16.87;72.83;97293.81;4487801;31;20093;-85
2023/03/25 02:36:29;;;;;;;3.70;1.00;;;;;;;17.44;70.09;97296.09;4486502;32;20099;-84
2023/03/25 02:39:12;;;;;;;2.58;0.70;;;;;;;18.08;66.49;97298.56;4487852;31;20431;-85
2023/03/25 02:41:47;;;;;;;1.65;0.90;;;;;;;18.22;65.19;97294.75;4486639;32;20435;-85
2023/03/25 02:44:42;;;;;;;1.65;0.77;;;;;;;17.73;66.99;97298.06;4487622;31;20097;-85
2023/03/25 02:47:14;;;;;;;2.67;1.00;;;;;;;18.33;64.93;97297.28;4486698;32;20152;-85
2023/03/25 02:49:52;;;;;;;1.87;0.85;;;;;;;18.21;64.67;97298.34;4486723;32;20151;-85
2023/03/25 02:52:20;;;;;;;3.78;1.02;;;;;;;18.69;62.63;97303.72;4486256;32;20072;-85
2023/03/25 02:54:48;;;;;;;7.12;1.02;;;;;;;18.72;61.67;97307.88;4486369;31;20096;-85
2023/03/25 02:57:18;;;;;;;2.60;0.90;;;;;;;17.92;64.95;97317.28;4486476;32;20096;-84
2023/03/25 02:59:46;;;;;;;1.52;0.88;;;;;;;16.59;71.33;97316.81;4486314;32;20438;-85
2023/03/25 03:02:14;;;;;;;2.12;0.82;;;;;;;16.40;73.21;97314.81;4487511;31;20417;-85
2023/03/25 03:04:53;;;;;;;1.87;0.50;;;;;;;16.59;72.22;97322.03;4486322;31;20096;-85
2023/03/25 03:07:32;;;;;;;1.50;0.70;;;;;;;16.43;73.50;97309.38;4487646;31;20092;-85
2023/03/25 03:10:19;;;;;;;2.20;0.70;;;;;;;16.69;72.81;97311.72;4487575;31;20129;-85
2023/03/25 03:13:24;;;;;;;2.95;0.90;;;;;;;17.24;69.95;97321.19;4486253;32;20119;-85
2023/03/25 03:16:12;;;;;;;2.65;0.60;;;;;;;17.50;67.48;97344.28;4487631;32;20594;-84
2023/03/25 03:18:57;;;;;;;0.93;0.70;;;;;;;16.31;73.53;97338.12;4486190;32;20123;-84
2023/03/25 03:21:37;;;;;;;2.05;0.82;;;;;;;16.24;74.30;97342.13;4486393;32;20088;-85
2023/03/25 03:24:21;;;;;;;2.28;0.80;;;;;;;16.18;74.98;97339.06;4486337;32;20106;-85
2023/03/25 03:27:10;;;;;;;2.22;0.68;;;;;;;16.48;74.10;97332.44;4487227;31;20227;-85
2023/03/25 03:29:44;;;;;;;3.67;1.00;;;;;;;16.15;75.26;97341.87;4487309;31;20156;-85
2023/03/25 03:32:56;;;;;;;2.65;0.70;;;;;;;15.95;76.11;97326.13;4486289;32;20091;-84
2023/03/25 03:35:37;;;;;;;1.33;0.73;;;;;;;15.87;76.05;97332.78;4477998;32;20076;-84
2023/03/25 03:42:00;;;;;;;1.52;0.80;;;;;;;15.66;76.95;97328.34;4487073;32;20138;-84
2023/03/25 03:44:33;;;;;;;0.75;0.50;;;;;;;15.38;78.19;97332.13;4486213;32;20084;-84
2023/03/25 03:47:09;;;;;;;1.87;0.65;;;;;;;14.90;81.86;97325.19;4487027;31;20656;-84
2023/03/25 03:49:43;;;;;;;3.70;0.80;;;;;;;15.18;80.75;97333.56;4487152;31;20092;-84
2023/03/25 03:52:21;;;;;;;1.02;0.73;;;;;;;15.08;81.82;97330.81;4486043;32;20164;-84
2023/03/25 03:54:54;;;;;;;3.35;0.93;;;;;;;14.93;82.87;97324.94;4485434;32;20088;-84
2023/03/25 03:57:41;;;;;;;2.20;0.95;;;;;;;14.85;84.10;97329.84;4487137;31;20073;-84
2023/03/25 04:00:14;;;;;;;1.67;0.80;;;;;;;15.27;81.25;97343.28;4485886;32;20134;-84
2023/03/25 04:03:29;;;;;;;3.05;0.90;;;;;;;14.80;84.03;97350.16;4485707;32;20736;-84
2023/03/25 04:06:20;;;;;;;3.97;1.00;;;;;;;14.48;86.35;97362.78;4486915;31;20079;-84
2023/03/25 04:12:34;;;;;;;4.05;1.10;;;;;;;14.29;87.99;97365.78;4486882;32;20141;-84
2023/03/25 04:15:02;;;;;;;3.12;1.00;;;;;;;14.26;88.67;97362.56;4485789;32;20115;-84
2023/03/25 04:17:31;;;;;;;2.70;1.08;;;;;;;14.68;86.48;97359.62;4488712;31;20093;-84
2023/03/25 04:20:00;;;;;;;2.40;0.80;;;;;;;14.87;85.73;97363.50;4488786;31;20084;-84
2023/03/25 04:22:27;;;;;;;2.83;0.90;;;;;;;15.25;82.84;97352.97;4487316;32;20093;-84
2023/03/25 04:24:55;;;;;;;1.87;0.85;;;;;;;15.51;81.01;97358.84;4488734;31;20145;-84
2023/03/25 04:27:21;;;;;;;3.30;1.17;;;;;;;14.97;84.23;97354.94;4488754;31;20104;-84
2023/03/25 04:29:50;;;;;;;1.77;0.88;;;;;;;14.88;85.04;97352.19;4488331;31;20415;-84
2023/03/25 04:32:17;;;;;;;1.65;0.90;;;;;;;14.89;84.99;97353.88;4488663;31;20665;-84
2023/03/25 04:34:45;;;;;;;2.40;1.10;;;;;;;14.69;85.53;97361.28;4488647;31;20092;-84
2023/03/25 04:37:13;;;;;;;1.90;1.00;;;;;;;14.43;87.58;97351.84;4488328;31;20152;-84
2023/03/25 04:39:40;;;;;;;3.00;1.00;;;;;;;14.67;86.17;97360.56;4488616;31;20157;-84
2023/03/25 04:42:12;;;;;;;1.48;1.00;;;;;;;14.94;84.62;97349.97;4488535;31;20233;-84
2023/03/25 04:44:39;;;;;;;3.80;1.25;;;;;;;15.01;84.09;97352.97;4487341;32;20104;-84
2023/03/25 04:47:10;;;;;;;2.87;1.20;;;;;;;15.05;84.32;97355.25;4488586;31;20088;-84
2023/03/25 04:49:37;;;;;;;3.00;1.15;;;;;;;15.36;82.54;97360.00;4487340;32;20439;-84
2023/03/25 04:52:05;;;;;;;8.10;1.55;;;;;;;15.13;83.79;97365.09;4488272;32;20096;-84
2023/03/25 04:54:32;;;;;;;3.62;1.37;;;;;;;14.87;85.38;97364.34;4488230;31;20104;-84
2023/03/25 04:56:59;;;;;;;3.87;1.42;;;;;;;14.77;85.89;97365.91;4488258;31;20084;-84
2023/03/25 04:59:26;;;;;;;3.55;1.37;;;;;;;15.14;83.78;97365.91;4487290;32;20076;-84
2023/03/25 05:01:53;;;;;;;2.75;1.20;;;;;;;14.86;84.98;97367.03;4488512;31;20145;-84
2023/03/25 05:04:20;;;;;;;3.45;1.10;;;;;;;14.71;85.01;97366.38;4488279;31;20160;-84
2023/03/25 05:06:50;;;;;;;6.78;1.90;;;;;;;14.79;85.01;97371.03;4488411;31;20147;-84
2023/03/25 05:09:20;;;;;;;6.05;1.73;;;;;;;15.00;84.29;97374.72;4488336;31;20133;-84
2023/03/25 05:11:48;;;;;;;7.78;1.87;;;;;;;15.04;83.86;97379.56;4488193;31;20113;-84
2023/03/25 05:14:17;;;;;;;5.47;1.73;;;;;;;15.24;82.61;97382.50;4488352;31;20101;-84
2023/03/25 05:16:45;;;;;;;5.85;2.47;;;;;;;15.35;81.86;97382.56;4488419;31;20080;-84
2023/03/25 05:22:42;;;;;;;7.18;1.40;;;;;;;14.97;83.91;97391.31;4488409;32;20123;-84
2023/03/25 05:25:09;;;;;;;5.75;2.10;;;;;;;14.71;86.54;97385.38;4488054;32;20142;-84
2023/03/25 05:27:36;;;;;;;4.15;1.48;;;;;;;14.88;84.99;97385.94;4486475;32;20099;-84
2023/03/25 05:30:05;;;;;;;3.10;1.30;;;;;;;14.86;84.67;97388.66;4488061;31;20092;-84
2023/03/25 05:32:32;;;;;;;3.03;1.40;;;;;;;14.82;85.25;97389.81;4487983;32;20434;-83
2023/03/25 05:35:01;;;;;;;4.65;1.75;;;;;;;14.48;87.45;97396.53;4488230;31;20097;-84
2023/03/25 05:37:27;;;;;;;2.80;1.20;;;;;;;14.61;86.41;97404.28;4487024;32;20088;-83
2023/03/25 05:39:55;;;;;;;5.90;1.40;;;;;;;14.46;86.84;97408.75;4487934;31;20157;-84
2023/03/25 05:42:22;;;;;;;3.67;1.50;;;;;;;14.69;85.46;97394.22;4488161;31;20097;-84
2023/03/25 05:44:51;;;;;;;3.87;1.40;;;;;;;14.45;86.58;97410.53;4488153;31;20110;-84
2023/03/25 05:47:23;;;;;;;5.62;1.80;;;;;;;14.41;86.90;97414.25;4487797;31;20106;-84
2023/03/25 05:49:51;;;;;;;3.78;1.58;;;;;;;13.87;90.75;97421.38;4486920;32;20077;-84
2023/03/25 05:52:19;;;;;;;4.47;1.60;;;;;;;13.73;92.01;97424.03;4488087;31;20466;-84
2023/03/25 05:54:50;;;;;;;3.78;1.67;;;;;;;13.76;92.66;97437.63;4487622;31;20382;-84
2023/03/25 05:57:17;;;;;;;4.93;1.92;;;;;;;14.06;91.32;97431.38;4488150;31;20076;-84
2023/03/25 05:59:44;;;;;;;5.35;1.95;;;;;;;13.83;93.36;97431.13;4487984;31;20084;-84
2023/03/25 06:02:13;;;;;;;4.87;2.03;;;;;;;14.02;91.83;97432.47;4487866;31;20540;-84
2023/03/25 06:04:41;;;;;;;5.55;2.10;;;;;;;14.11;91.79;97429.28;4487983;31;20491;-84
2023/03/25 06:07:13;;;;;;;5.72;1.90;;;;;;;14.18;91.16;97423.59;4487772;32;20085;-83
2023/03/25 06:09:44;;;;;;;5.15;1.77;;;;;;;14.24;90.82;97434.47;4487890;31;20132;-84
2023/03/25 06:12:16;;;;;;;4.10;1.70;;;;;;;14.21;91.12;97437.28;4487994;31;20108;-84
2023/03/25 06:14:44;;;;;;;5.00;1.80;;;;;;;14.10;92.00;97432.81;4487746;31;20620;-83
2023/03/25 06:17:12;;;;;;;7.87;1.98;;;;;;;14.06;92.46;97436.56;4487886;31;20499;-84
2023/03/25 06:19:39;;;;;;;4.40;1.80;;;;;;;14.11;92.91;97437.06;4487909;31;20076;-84
2023/03/25 06:22:11;;;;;;;8.48;1.90;;;;;;;14.70;88.76;97438.25;4486516;32;20344;-84
2023/03/25 06:24:39;;;;;;;6.12;1.77;;;;;;;14.69;89.30;97444.38;4487825;31;20164;-84
2023/03/25 06:27:11;;;;;;;3.10;1.20;;;;;;;14.91;87.38;97456.69;4487590;31;20156;-84
2023/03/25 06:33:21;;;;;;;;;;;;;;;14.68;88.11;97462.66;4488234;32;20142;-84
2023/03/25 06:36:10;;;;;;;5.00;1.62;;;;;;;14.57;88.89;97465.13;4487588;32;20027;-84
2023/03/25 06:38:38;;;;;;;5.00;1.67;;;;;;;14.88;87.67;97461.25;4486626;32;20112;-84
2023/03/25 06:41:06;;;;;;;3.15;1.45;;;;;;;15.02;86.75;97454.19;4488045;31;20072;-84
2023/03/25 06:43:33;;;;;;;3.42;1.40;;;;;;;15.03;87.82;97452.41;4487667;31;20116;-84
2023/03/25 06:46:00;;;;;;;4.65;1.40;;;;;;;15.47;83.99;97459.66;4487755;31;20109;-84
2023/03/25 06:51:50;;;;;;;3.33;1.00;;;;;;;15.59;82.94;97453.56;4487713;32;20126;-84
2023/03/25 06:54:17;;;;;;;3.70;1.23;;;;;;;15.87;81.98;97462.84;4487445;32;20104;-84
2023/03/25 06:56:44;;;;;;;2.15;1.00;;;;;;;16.16;79.65;97468.50;4487365;31;20097;-84
2023/03/25 06:59:11;;;;;;;2.95;1.10;;;;;;;16.26;79.67;97465.19;4487638;31;20080;-84
2023/03/25 07:01:38;;;;;;;2.83;1.10;;;;;;;15.86;81.48;97466.38;4487628;31;20088;-84
2023/03/25 07:04:05;;;;;;;2.83;1.60;;;;;;;16.01;81.41;97471.37;4487365;31;20128;-84
2023/03/25 07:06:32;;;;;;;3.75;1.15;;;;;;;15.97;80.76;97480.38;4486440;32;20418;-84
2023/03/25 07:08:59;;;;;;;3.05;1.10;;;;;;;16.04;81.87;97479.78;4487526;31;20182;-84
2023/03/25 07:11:28;;;;;;;2.47;1.20;;;;;;;15.85;82.13;97482.09;4487297;31;20084;-84
2023/03/25 07:13:55;;;;;;;4.25;1.30;;;;;;;15.83;82.84;97486.56;4487458;31;20096;-84
2023/03/25 07:16:22;;;;;;;2.58;1.45;;;;;;;15.39;83.22;97493.16;4487609;31;20130;-84
2023/03/25 07:22:30;;;;;;;;;;;;;;;15.91;82.60;97490.28;4487779;32;20095;-84
2023/03/25 07:24:57;;;;;;;3.65;1.15;;;;;;;16.14;80.52;97485.16;4487264;31;19972;-84
2023/03/25 07:27:25;;;;;;;3.15;1.30;;;;;;;16.20;81.63;97488.13;4487376;31;20111;-84
2023/03/25 07:29:52;;;;;;;2.40;1.30;;;;;;;16.57;80.13;97487.13;4487248;32;20093;-84
2023/03/25 07:32:19;;;;;;;4.65;1.60;;;;;;;16.44;78.54;97489.84;4486950;31;20077;-84
2023/03/25 07:34:46;;;;;;;4.55;1.35;;;;;;;16.64;77.96;97488.34;4487293;31;20464;-84
2023/03/25 07:37:12;;;;;;;3.75;1.50;;;;;;;16.52;77.58;97484.91;4487399;31;20101;-84
2023/03/25 07:43:20;;;;;;;3.92;1.60;;;;;;;16.94;73.89;97487.81;4487290;32;20358;-84
2023/03/25 07:45:47;;;;;;;3.35;1.70;;;;;;;16.98;73.16;97481.41;4486957;31;20106;-84
2023/03/25 07:48:15;;;;;;;4.78;1.90;;;;;;;16.94;73.77;97482.59;4487137;31;20461;-84
2023/03/25 07:50:42;;;;;;;6.80;1.60;;;;;;;16.98;72.94;97487.44;4486377;31;20094;-84
2023/03/25 07:53:10;;;;;;;5.45;1.85;;;;;;;16.97;73.20;97487.56;4485684;32;20111;-84
2023/03/25 07:55:37;;;;;;;2.90;1.48;;;;;;;17.50;69.95;97483.34;4486984;31;20110;-84
2023/03/25 07:58:04;;;;;;;3.30;1.40;;;;;;;16.94;70.94;97480.81;4486970;31;20160;-84
2023/03/25 08:00:30;;;;;;;5.62;1.60;;;;;;;17.47;68.89;97475.78;4486769;31;20538;-84
2023/03/25 08:02:57;;;;;;;4.28;1.67;;;;;;;17.52;68.41;97473.62;4486944;31;20149;-84
2023/03/25 08:05:24;;;;;;;3.90;1.80;;;;;;;17.30;70.23;97469.28;4486926;31;20434;-84
2023/03/25 08:11:58;;;;;;;3.60;1.60;;;;;;;17.38;67.98;97468.69;4486823;32;20103;-84
2023/03/25 08:14:24;;;;;;;3.75;1.50;;;;;;;17.24;67.30;97464.56;4486372;31;20374;-84
2023/03/25 08:16:51;;;;;;;2.47;1.48;;;;;;;17.20;66.68;97470.13;4486695;31;20099;-84
2023/03/25 08:19:19;;;;;;;3.60;1.60;;;;;;;17.64;68.47;97467.41;4486684;31;20100;-84
2023/03/25 08:21:46;;;;;;;3.37;1.70;;;;;;;18.01;67.82;97474.91;4486384;31;20340;-84
2023/03/25 08:24:12;;;;;;;4.75;1.80;;;;;;;18.01;68.09;97481.91;4486547;31;20077;-84
2023/03/25 08:26:39;;;;;;;5.55;1.98;;;;;;;17.67;68.46;97475.97;4486506;32;20413;-84
2023/03/25 08:32:52;;;;;;;3.85;1.80;;;;;;;17.61;67.20;97472.06;4486611;32;20099;-84
2023/03/25 08:35:22;;;;;;;4.80;1.80;;;;;;;17.40;67.86;97481.59;4485195;32;20366;-84
2023/03/25 08:37:50;;;;;;;3.65;1.70;;;;;;;17.49;67.13;97483.47;4486475;31;20141;-84
2023/03/25 08:40:17;;;;;;;4.95;1.90;;;;;;;17.44;67.24;97478.63;4486410;31;20096;-84
2023/03/25 08:42:45;;;;;;;5.18;2.08;;;;;;;17.14;68.30;97486.25;4486107;31;20423;-84
2023/03/25 08:45:14;;;;;;;5.03;1.80;;;;;;;16.92;70.49;97489.72;4486270;31;20089;-84
2023/03/25 08:47:42;;;;;;;4.72;1.77;;;;;;;17.01;68.12;97486.37;4486263;31;20121;-84
2023/03/25 08:50:09;;;;;;;6.55;1.98;;;;;;;17.16;66.96;97490.41;4484763;32;20108;-84
2023/03/25 08:52:36;;;;;;;3.12;1.45;;;;;;;17.29;66.27;97485.03;4486232;31;20141;-84
2023/03/25 08:55:06;;;;;;;3.53;1.60;;;;;;;17.81;66.73;97484.34;4485948;31;20098;-84
2023/03/25 09:03:45;;;;;;;3.60;1.58;;;;;;;18.91;61.96;97480.41;4488019;32;20458;-84
2023/03/25 09:06:12;;;;;;;5.60;1.62;;;;;;;18.57;55.89;97487.66;4488376;31;20414;-84
2023/03/25 09:08:39;;;;;;;5.12;1.60;;;;;;;18.05;55.67;97484.13;4488378;31;20426;-84
2023/03/25 09:11:06;;;;;;;3.65;1.52;;;;;;;17.62;57.98;97478.94;4488019;32;20110;-84
2023/03/25 09:13:33;;;;;;;3.72;1.30;;;;;;;17.87;56.96;97478.66;4488401;31;20081;-84
2023/03/25 09:16:00;;;;;;;3.00;1.40;;;;;;;17.69;59.56;97476.66;4488353;32;20081;-84
2023/03/25 09:22:08;;;;;;;4.47;1.70;;;;;;;18.55;62.41;97489.56;4488394;32;20107;-84
2023/03/25 09:24:35;;;;;;;4.25;1.60;;;;;;;18.35;59.39;97495.63;4487912;32;20089;-84
2023/03/25 09:27:02;;;;;;;6.57;1.48;;;;;;;18.20;59.49;97490.72;4488254;31;20089;-84
2023/03/25 09:29:29;;;;;;;2.83;1.55;;;;;;;17.90;61.29;97488.00;4488196;31;20156;-84
2023/03/25 09:31:57;;;;;;;4.53;1.60;;;;;;;18.01;59.28;97497.56;4487933;31;20101;-84
2023/03/25 09:34:24;;;;;;;4.03;1.40;;;;;;;18.08;57.76;97490.91;4488196;31;20084;-84
2023/03/25 09:36:53;;;;;;;5.53;1.60;;;;;;;18.01;57.83;97482.75;4487027;32;20130;-84
2023/03/25 09:42:57;;;;;;;3.55;1.60;;;;;;;18.29;59.68;97477.84;4488055;32;20111;-84
2023/03/25 09:45:35;;;;;;;3.90;1.58;;;;;;;18.58;59.06;97470.19;4487854;31;20088;-84
2023/03/25 09:51:56;;;;;;;2.03;1.27;;;;;;;19.31;54.22;97464.72;4487813;32;20160;-84
2023/03/25 09:54:31;;;;;;;4.35;1.60;;;;;;;19.68;50.92;97469.41;4487866;31;20096;-84
2023/03/25 09:57:05;;;;;;;4.70;1.60;;;;;;;18.94;54.32;97481.97;4488068;32;20418;-84
2023/03/25 10:03:19;;;;;;;4.20;1.45;;;;;;;18.97;54.52;97482.53;4488123;32;20161;-84
2023/03/25 10:05:58;;;;;;;3.03;1.17;;;;;;;18.37;58.26;97498.94;4487791;31;20127;-84
2023/03/25 10:12:29;;;;;;;4.20;1.42;;;;;;;17.71;57.75;97493.06;4487791;32;20102;-84
2023/03/25 10:15:17;;;;;;;3.17;1.10;;;;;;;17.20;58.82;97494.41;4486705;32;20201;-84
2023/03/25 10:22:04;;;;;;;2.50;1.30;;;;;;;17.97;64.29;97501.37;4487733;32;20103;-84
2023/03/25 10:24:38;;;;;;;2.47;1.20;;;;;;;18.23;63.86;97507.09;4487873;31;20434;-84
2023/03/25 10:27:31;;;;;;;3.42;1.83;;;;;;;18.41;64.03;97506.41;4487656;31;20088;-84
2023/03/25 10:30:26;;;;;;;3.35;1.40;;;;;;;18.30;64.31;97508.25;4486643;32;20108;-84
2023/03/25 10:32:58;;;;;;;3.62;1.48;;;;;;;17.95;65.95;97506.72;4478950;32;20150;-84
2023/03/25 10:35:30;;;;;;;3.50;1.40;;;;;;;17.72;65.79;97507.75;4473536;32;20099;-84
2023/03/25 10:38:01;;;;;;;4.03;1.40;;;;;;;17.70;66.70;97514.88;4487842;31;20116;-84
2023/03/25 10:40:48;;;;;;;3.58;1.40;;;;;;;17.66;67.74;97506.44;4486436;32;20553;-84
2023/03/25 10:43:34;;;;;;;3.47;1.50;;;;;;;17.85;66.46;97517.06;4486686;32;20430;-84
2023/03/25 10:46:11;;;;;;;3.15;1.30;;;;;;;17.93;67.90;97513.84;4486563;32;20081;-84
2023/03/25 10:52:19;;;;;;;3.05;1.55;;;;;;;17.62;69.49;97524.09;4487624;32;20187;-84
2023/03/25 10:54:50;;;;;;;4.25;1.90;;;;;;;17.47;70.55;97525.34;4485948;31;20096;-84
2023/03/25 10:57:21;;;;;;;5.78;2.03;;;;;;;17.58;69.32;97522.69;4487673;32;20098;-84
2023/03/25 11:00:00;;;;;;;4.00;1.62;;;;;;;17.47;68.72;97508.84;4487724;31;20097;-84
2023/03/25 11:02:29;;;;;;;3.35;1.85;;;;;;;17.40;69.67;97508.50;4487398;31;20480;-84
2023/03/25 11:04:59;;;;;;;4.25;1.87;;;;;;;17.60;69.22;97507.75;4486389;32;20371;-84
2023/03/25 11:07:32;;;;;;;4.45;1.92;;;;;;;17.84;67.56;97499.75;4486343;32;20140;-84
2023/03/25 11:10:16;;;;;;;4.20;1.85;;;;;;;17.54;68.50;97496.97;4486092;32;20100;-84
2023/03/25 11:12:47;;;;;;;4.53;1.83;;;;;;;17.98;67.70;97485.63;4486447;32;20425;-84
2023/03/25 11:15:23;;;;;;;5.78;1.90;;;;;;;18.37;66.30;97478.03;4487542;31;20077;-84
2023/03/25 11:22:15;;;;;;;3.22;1.60;;;;;;;18.24;65.64;97496.50;4487447;32;20161;-84
2023/03/25 11:24:46;;;;;;;4.60;1.40;;;;;;;18.31;63.91;97489.00;4484047;32;20141;-84
2023/03/25 11:27:21;;;;;;;3.00;1.42;;;;;;;18.48;62.16;97484.03;4486366;32;20141;-84
2023/03/25 11:29:54;;;;;;;4.22;1.40;;;;;;;17.92;63.61;97475.66;4486042;32;20121;-84
2023/03/25 11:32:38;;;;;;;3.83;1.60;;;;;;;17.93;64.94;97459.88;4487218;31;20112;-84
2023/03/25 11:35:14;;;;;;;3.90;1.37;;;;;;;17.77;65.12;97458.66;4487282;31;20111;-84
2023/03/25 11:44:30;;;;;;;3.08;1.20;;;;;;;17.85;58.77;97457.03;4486958;32;19972;-83
2023/03/25 11:47:02;;;;;;;3.10;1.30;;;;;;;17.75;58.15;97460.53;4486006;32;20134;-82
2023/03/25 11:49:34;;;;;;;3.55;1.27;;;;;;;17.54;57.99;97463.87;4486070;32;20838;-83
2023/03/25 11:52:13;;;;;;;3.42;1.30;;;;;;;17.16;59.07;97466.94;4473249;32;20092;-83
2023/03/25 11:54:41;;;;;;;0.40;0.40;;;;;;;16.86;61.03;97492.78;4486861;31;20101;-83
2023/03/25 11:57:23;;;;;;;1.00;0.32;;;;;;;16.11;48.87;97473.19;4487150;31;20415;-83
2023/03/25 12:00:00;;;;;;;1.85;0.50;;;;;;;16.09;47.24;97484.69;4486917;31;20085;-83
2023/03/25 12:02:36;;;;;;;;;;;;;;;15.86;47.66;97471.59;4487280;31;20088;-83
2023/03/25 12:05:13;;;;;;;0.62;0.50;;;;;;;16.08;46.92;97449.19;4485694;32;19971;-83
2023/03/25 12:14:48;;;;;;;2.17;0.73;;;;;;;15.50;61.79;97437.81;4486695;32;20431;-82
2023/03/25 12:17:15;;;;;;;0.93;0.75;;;;;;;16.20;52.67;97417.03;4486763;31;20080;-82
2023/03/25 12:23:39;;;;;;;0.50;0.43;;;;;;;15.96;56.06;97418.88;4486677;32;20161;-83
2023/03/25 12:26:12;;;;;;;1.65;0.50;;;;;;;15.47;58.03;97419.84;4486372;31;20092;-83
2023/03/25 12:32:23;;;;;;;1.90;0.50;;;;;;;16.23;55.32;97427.22;4486310;32;20511;-83
2023/03/25 12:34:55;;;;;;;1.10;0.52;;;;;;;16.51;54.17;97414.72;4486332;31;20110;-83
2023/03/25 12:37:38;;;;;;;3.33;0.93;;;;;;;17.86;51.07;97411.75;4487016;32;20138;-83
2023/03/25 12:40:33;;;;;;;1.48;0.85;;;;;;;19.89;44.59;97409.87;4488471;31;20072;-84
2023/03/25 12:43:10;;;;;;;2.40;0.90;;;;;;;20.01;40.20;97401.87;4487497;32;20108;-83
2023/03/25 12:45:43;;;;;;;2.70;1.00;;;;;;;20.08;42.12;97413.41;4488486;32;20096;-83
2023/03/25 12:52:06;;;;;;;3.50;1.20;;;;;;;20.20;44.00;97407.06;4488489;32;20098;-84
2023/03/25 12:54:53;;;;;;;1.20;0.73;;;;;;;19.96;46.03;97415.38;4488100;31;20100;-84
2023/03/25 12:57:26;;;;;;;1.37;0.80;;;;;;;17.62;52.74;97411.09;4488575;31;20513;-84
2023/03/25 13:00:08;;;;;;;1.77;0.80;;;;;;;17.55;56.16;97408.19;4488445;31;20089;-84
2023/03/25 13:03:26;;;;;;;1.12;0.70;;;;;;;18.59;52.61;97406.53;4488374;31;20137;-84
2023/03/25 13:06:20;;;;;;;2.45;0.88;;;;;;;20.36;46.55;97406.47;4484934;31;20096;-84
2023/03/25 13:12:38;;;;;;;1.62;0.88;;;;;;;20.51;44.94;97413.75;4488312;32;20116;-84
2023/03/25 13:15:19;;;;;;;2.53;0.85;;;;;;;19.96;46.89;97410.13;4487026;32;20085;-84
2023/03/25 13:18:00;;;;;;;2.95;1.10;;;;;;;20.19;47.32;97408.03;4487295;32;20172;-84
2023/03/25 13:20:30;;;;;;;2.72;1.10;;;;;;;20.66;46.64;97410.69;4488467;31;20434;-84
2023/03/25 13:23:01;;;;;;;3.85;1.23;;;;;;;21.61;44.07;97405.91;4488026;31;20153;-84
2023/03/25 13:25:38;;;;;;;2.40;1.10;;;;;;;20.75;44.79;97412.47;4488321;32;20434;-84
2023/03/25 13:28:10;;;;;;;3.67;1.25;;;;;;;20.86;44.49;97409.66;4487072;32;20108;-84
2023/03/25 13:30:40;;;;;;;2.33;1.10;;;;;;;20.88;44.04;97420.00;4486834;32;20168;-84
2023/03/25 13:33:15;;;;;;;3.40;1.30;;;;;;;19.44;47.58;97416.56;4487095;32;20092;-83
2023/03/25 13:35:51;;;;;;;3.65;1.30;;;;;;;18.87;47.34;97420.72;4488316;31;20081;-83
2023/03/25 13:42:06;;;;;;;3.62;1.17;;;;;;;18.06;49.34;97417.09;4488160;32;20110;-83
2023/03/25 13:44:36;;;;;;;1.80;1.08;;;;;;;17.37;48.43;97412.25;4487979;31;20089;-84
2023/03/25 13:47:29;;;;;;;2.67;1.10;;;;;;;17.35;47.86;97417.59;4488222;31;20122;-83
2023/03/25 13:50:01;;;;;;;2.33;0.90;;;;;;;17.47;48.79;97415.78;4486945;32;20515;-83
2023/03/25 13:52:38;;;;;;;3.17;1.10;;;;;;;17.87;45.51;97413.41;4488090;31;20114;-83
2023/03/25 13:55:15;;;;;;;4.65;1.37;;;;;;;17.80;44.33;97411.44;4487670;31;20086;-83
2023/03/25 14:04:26;;;;;;;4.65;0.90;;;;;;;17.99;44.22;97410.75;4487756;32;20115;-84
2023/03/25 14:07:20;;;;;;;3.03;0.85;;;;;;;17.71;43.10;97405.16;4486923;32;20144;-83
2023/03/25 14:10:11;;;;;;;2.80;1.10;;;;;;;17.78;43.63;97401.13;4487995;31;20076;-83
2023/03/25 14:12:42;;;;;;;2.03;0.80;;;;;;;17.13;44.81;97402.03;4487681;31;20150;-83
2023/03/25 14:15:21;;;;;;;2.42;0.85;;;;;;;16.71;44.40;97396.63;4487989;31;20194;-83